Time;durP1;ratioP1;P1;durP2;ratioP2;P2;SDS_P1;SDS_P2;PMS_P1;PMS_P2;Temp;Humidity;BMP_temperature;BMP_pressure;BME280_temperature;BME280_humidity;BME280_pressure;Samples;Min_cycle;Max_cycle;Signal;HPM_P1;HPM_P2
2022/05/02 20:16:32;;;;;;;;;;;17.60;53.40;;;;;;5014066;27;20120;-84
2022/05/02 20:18:58;;;;;;;;;;;17.50;54.50;;;;;;5037562;28;20379;-88
2022/05/02 20:21:25;;;;;;;;;;;17.60;53.70;;;;;;4965517;28;20021;-85
2022/05/02 20:23:55;;;;;;;13.88;7.28;;;17.60;52.60;;;;;;4964107;28;19967;-86
2022/05/02 20:26:22;;;;;;;13.02;6.45;;;17.60;51.80;;;;;;5028367;28;20039;-87
2022/05/02 20:28:48;;;;;;;10.80;6.10;;;17.60;51.00;;;;;;4944520;28;20029;-85
2022/05/02 20:36:38;;;;;;;15.82;6.65;;;17.70;50.30;;;;;;4962916;28;20077;-85
2022/05/02 20:36:49;;;;;;;11.63;6.82;;;17.70;49.50;;;;;;4928610;28;20425;-81
2022/05/02 20:39:15;;;;;;;11.50;7.05;;;17.70;49.30;;;;;;5028645;28;20096;-83
2022/05/02 20:41:44;;;;;;;11.70;5.78;;;17.70;49.20;;;;;;5000943;28;20517;-82
2022/05/02 20:44:47;;;;;;;10.48;5.90;;;17.70;49.30;;;;;;5022500;28;20414;-82
2022/05/02 20:47:17;;;;;;;9.75;5.68;;;17.70;49.30;;;;;;5025161;28;20422;-82
2022/05/02 20:49:55;;;;;;;15.32;5.63;;;17.70;49.40;;;;;;4944458;28;20031;-82
2022/05/02 20:52:23;;;;;;;11.40;5.90;;;17.70;49.40;;;;;;4945156;28;20032;-81
2022/05/02 20:54:51;;;;;;;9.13;5.38;;;17.70;49.50;;;;;;5007246;28;20043;-81
2022/05/02 20:57:19;;;;;;;8.45;5.45;;;17.70;49.60;;;;;;5041379;28;20031;-81
2022/05/02 20:59:48;;;;;;;13.90;5.28;;;17.70;49.90;;;;;;4943295;28;20604;-81
2022/05/02 21:02:14;;;;;;;7.82;4.78;;;17.70;49.90;;;;;;5040406;28;20028;-80
2022/05/02 21:04:41;;;;;;;7.00;4.68;;;17.70;50.20;;;;;;5020261;28;20509;-81
2022/05/02 21:07:07;;;;;;;8.88;4.72;;;17.70;50.40;;;;;;5009267;28;20583;-81
2022/05/02 21:09:33;;;;;;;8.68;4.82;;;17.70;50.60;;;;;;4943598;28;20070;-80
2022/05/02 21:12:11;;;;;;;9.82;4.55;;;17.70;50.70;;;;;;4943318;28;20510;-80
2022/05/02 21:15:22;;;;;;;8.07;4.05;;;17.70;50.90;;;;;;5040488;28;20113;-81
2022/05/02 21:18:10;;;;;;;5.78;4.00;;;17.70;51.00;;;;;;4957592;28;20042;-81
2022/05/02 21:21:06;;;;;;;7.90;4.35;;;17.70;51.00;;;;;;5003438;28;20066;-81
2022/05/02 21:24:10;;;;;;;9.82;4.22;;;17.70;51.10;;;;;;5018547;28;20033;-81
2022/05/02 21:26:36;;;;;;;7.15;3.90;;;17.70;51.20;;;;;;5000551;28;20105;-81
2022/05/02 21:29:15;;;;;;;8.20;3.97;;;17.70;51.30;;;;;;4992954;28;20043;-81
2022/05/02 21:32:03;;;;;;;7.15;4.60;;;17.70;51.40;;;;;;4929781;28;20071;-81
2022/05/02 21:34:47;;;;;;;4.93;3.42;;;17.70;51.30;;;;;;5027293;28;20054;-80
2022/05/02 21:37:17;;;;;;;5.25;4.00;;;17.60;51.50;;;;;;5009909;28;20372;-79
2022/05/02 21:39:47;;;;;;;5.47;3.97;;;17.60;51.50;;;;;;5026224;28;20600;-80
2022/05/02 21:42:14;;;;;;;5.70;3.72;;;17.60;51.60;;;;;;5026133;28;20046;-79
2022/05/02 21:44:40;;;;;;;5.10;3.53;;;17.60;51.60;;;;;;4993803;28;20446;-80
2022/05/02 21:47:06;;;;;;;8.30;3.78;;;17.60;51.60;;;;;;5026102;28;20075;-80
2022/05/02 21:49:32;;;;;;;6.03;3.70;;;17.60;51.80;;;;;;5026869;28;20045;-80
2022/05/02 21:51:58;;;;;;;5.40;3.50;;;17.60;51.70;;;;;;4965203;28;20077;-80
2022/05/02 21:54:24;;;;;;;4.82;3.42;;;17.60;51.90;;;;;;4960717;28;20612;-80
2022/05/02 21:56:50;;;;;;;4.32;3.55;;;17.60;51.90;;;;;;4928870;28;20069;-81
2022/05/02 21:59:16;;;;;;;4.30;3.72;;;17.60;52.50;;;;;;4959995;28;20039;-80
2022/05/02 22:01:42;;;;;;;4.18;3.38;;;17.60;51.90;;;;;;4961663;28;20049;-80
2022/05/02 22:04:09;;;;;;;4.63;3.30;;;17.60;52.00;;;;;;4946157;28;20069;-80
2022/05/02 22:06:35;;;;;;;3.40;2.80;;;17.60;52.60;;;;;;4945428;28;20391;-80
2022/05/02 22:09:01;;;;;;;3.67;3.38;;;17.60;52.10;;;;;;4946634;28;20154;-80
2022/05/02 22:11:27;;;;;;;5.05;3.15;;;17.60;52.10;;;;;;4945269;28;20073;-80
2022/05/02 22:13:53;;;;;;;3.92;3.30;;;17.60;52.20;;;;;;4960280;28;20031;-80
2022/05/02 22:16:19;;;;;;;3.40;3.00;;;17.50;52.20;;;;;;4946923;29;20059;-80
2022/05/02 22:18:45;;;;;;;7.65;3.60;;;17.50;52.30;;;;;;4961202;28;20050;-80
2022/05/02 22:21:11;;;;;;;3.70;3.08;;;17.50;52.40;;;;;;4928968;28;20153;-81
2022/05/02 22:23:37;;;;;;;3.67;3.17;;;17.50;52.50;;;;;;4960673;28;20035;-81
2022/05/02 22:26:03;;;;;;;6.18;3.53;;;17.50;52.60;;;;;;4923832;28;20510;-81
2022/05/02 22:28:29;;;;;;;4.05;3.50;;;17.50;52.60;;;;;;4961356;28;20085;-81
2022/05/02 22:30:55;;;;;;;4.43;3.45;;;17.50;52.70;;;;;;4960634;28;20043;-81
2022/05/02 22:33:21;;;;;;;6.78;3.67;;;17.50;52.80;;;;;;4960749;28;20048;-80
2022/05/02 22:35:47;;;;;;;4.88;3.38;;;17.50;52.80;;;;;;4959565;28;20130;-80
2022/05/02 22:38:13;;;;;;;5.93;3.45;;;17.50;52.90;;;;;;4925301;28;20391;-80
2022/05/02 22:40:41;;;;;;;4.05;3.05;;;17.40;52.90;;;;;;4946659;29;20141;-80
2022/05/02 22:43:07;;;;;;;6.90;3.90;;;17.40;52.90;;;;;;4946659;28;20066;-80
2022/05/02 22:45:33;;;;;;;5.50;3.42;;;17.40;52.90;;;;;;4925612;28;20353;-79
2022/05/02 22:47:58;;;;;;;5.03;3.20;;;17.40;52.90;;;;;;4992413;28;20493;-80
2022/05/02 22:50:25;;;;;;;4.90;3.60;;;17.40;53.00;;;;;;4944179;28;20047;-81
2022/05/02 22:52:51;;;;;;;3.55;3.22;;;17.40;53.10;;;;;;4946067;28;20063;-82
2022/05/02 22:55:17;;;;;;;4.10;3.50;;;17.40;53.20;;;;;;4944641;28;20031;-80
2022/05/02 22:57:50;;;;;;;4.50;3.17;;;17.40;53.20;;;;;;4939480;28;20037;-81
2022/05/02 23:00:16;;;;;;;4.43;3.20;;;17.30;53.30;;;;;;5009695;28;20074;-81
2022/05/02 23:03:07;;;;;;;3.80;3.22;;;17.30;53.40;;;;;;4946378;28;20069;-81
2022/05/02 23:05:46;;;;;;;3.45;3.10;;;17.40;53.40;;;;;;4944512;28;20027;-79
2022/05/02 23:08:18;;;;;;;5.68;3.33;;;17.30;53.40;;;;;;4945305;28;20039;-80
2022/05/02 23:10:47;;;;;;;4.20;3.13;;;17.30;53.50;;;;;;4944906;28;20523;-80
2022/05/02 23:13:15;;;;;;;3.67;3.05;;;17.30;53.50;;;;;;5024478;28;20085;-80
2022/05/02 23:15:43;;;;;;;5.20;3.17;;;17.30;53.60;;;;;;4945172;28;20083;-79
2022/05/02 23:18:09;;;;;;;6.45;3.78;;;17.30;53.70;;;;;;4944907;28;20027;-80
2022/05/02 23:20:36;;;;;;;6.65;3.03;;;17.30;53.80;;;;;;4959472;28;20043;-80
2022/05/02 23:23:02;;;;;;;4.55;3.20;;;17.30;53.80;;;;;;4945031;28;20466;-79
2022/05/02 23:25:30;;;;;;;4.40;3.30;;;17.30;53.90;;;;;;4924822;28;20031;-79
2022/05/02 23:27:57;;;;;;;4.60;3.33;;;17.20;53.90;;;;;;4944820;28;20456;-80
2022/05/02 23:30:24;;;;;;;4.90;2.97;;;17.20;54.00;;;;;;4960106;28;20498;-80
2022/05/02 23:33:00;;;;;;;4.28;3.22;;;17.20;54.10;;;;;;4959623;28;20039;-81
2022/05/02 23:35:27;;;;;;;4.35;3.00;;;17.20;54.10;;;;;;4945145;28;20058;-81
2022/05/02 23:38:17;;;;;;;4.53;3.50;;;17.20;54.20;;;;;;4944696;28;20078;-81
2022/05/02 23:40:45;;;;;;;4.13;3.20;;;17.20;54.30;;;;;;4944594;28;20037;-80
2022/05/02 23:43:26;;;;;;;3.33;2.90;;;17.10;54.30;;;;;;4945547;28;20035;-81
2022/05/02 23:46:20;;;;;;;4.50;2.85;;;17.20;54.40;;;;;;4945035;28;20545;-80
2022/05/02 23:49:02;;;;;;;4.03;3.03;;;17.20;54.40;;;;;;4946937;28;20077;-82
2022/05/02 23:51:49;;;;;;;3.83;2.95;;;17.10;54.50;;;;;;4961637;28;20040;-81
2022/05/02 23:54:25;;;;;;;3.67;2.92;;;17.10;54.50;;;;;;4926938;28;20031;-82
2022/05/02 23:56:59;;;;;;;;;;;17.10;54.50;;;;;;4945497;28;20027;-81
2022/05/02 23:59:54;;;;;;;3.20;2.72;;;17.10;54.70;;;;;;4944816;28;19926;-81
